Wetterstation Vordersexau
Wetterdaten: September 2014
Datum Temp. A. Feuchte A. Luftdruck Regen Wind Richtung Taupunkt Windchill Windben
01.09.2014 17,3 C 69 % 991,6 hPa 3,9 l/m 0,0 km/h N-NO 11,2 C 17,3 C 0,0 km/h
02.09.2014 16,2 C 74 % 991,1 hPa 0,0 l/m 0,0 km/h N-NO 11,3 C 16,2 C 0,0 km/h
03.09.2014 15,3 C 79 % 988,9 hPa 0,0 l/m 0,0 km/h N-NO 11,5 C 15,3 C 0,0 km/h
04.09.2014 19,8 C 71 % 986,6 hPa 0,0 l/m 0,0 km/h N-NO 13,8 C 19,8 C 0,0 km/h
05.09.2014 19,8 C 74 % 985,3 hPa 0,0 l/m 0,6 km/h N-NO 14,6 C 19,7 C 0,6 km/h
06.09.2014 21,1 C 69 % 983,7 hPa 0,0 l/m 0,0 km/h O-SO 14,5 C 21,1 C 0,0 km/h
07.09.2014 21,5 C 69 % 984,5 hPa 0,0 l/m 0,0 km/h W 14,9 C 21,5 C 0,0 km/h
08.09.2014 21,9 C 67 % 986,2 hPa 0,8 l/m 0,0 km/h O-NO 14,8 C 21,9 C 0,0 km/h
09.09.2014 19,9 C 74 % 987,3 hPa 0,0 l/m 0,5 km/h O-SO 14,7 C 19,9 C 0,3 km/h
10.09.2014 18,4 C 71 % 986,4 hPa 0,0 l/m 2,2 km/h N-NO 12,4 C 18,2 C 1,2 km/h
11.09.2014 15,4 C 71 % 986,1 hPa 0,0 l/m 2,2 km/h N-NO 9,7 C 15,1 C 1,2 km/h
12.09.2014 11,2 C 83 % 988,7 hPa 4,3 l/m 0,3 km/h N-NO 8,4 C 11,2 C 0,2 km/h
13.09.2014 17,2 C 74 % 990,6 hPa 0,8 l/m 0,0 km/h N-NO 12,4 C 17,2 C 0,0 km/h
14.09.2014 18,6 C 72 % 988,0 hPa 0,0 l/m 0,2 km/h N-NO 12,8 C 18,6 C 0,1 km/h
15.09.2014 17,9 C 73 % 985,6 hPa 0,0 l/m 0,5 km/h N-NO 12,6 C 17,9 C 0,3 km/h
16.09.2014 20,0 C 70 % 984,8 hPa 0,0 l/m 0,1 km/h O-SO 13,8 C 20,0 C 0,1 km/h
17.09.2014 19,4 C 74 % 982,5 hPa 0,0 l/m 1,0 km/h N-NO 14,3 C 19,4 C 0,6 km/h
18.09.2014 19,2 C 80 % 982,3 hPa 0,0 l/m 0,0 km/h N-NO 15,5 C 19,2 C 0,0 km/h
19.09.2014 19,9 C 76 % 984,4 hPa 1,5 l/m 0,8 km/h N-NO 15,5 C 19,9 C 0,5 km/h
20.09.2014 20,2 C 75 % 986,2 hPa 0,8 l/m 0,9 km/h SO 15,3 C 20,2 C 0,5 km/h
21.09.2014 16,6 C 83 % 987,0 hPa 6,6 l/m 0,5 km/h SO 13,6 C 16,6 C 0,3 km/h
22.09.2014 12,7 C 76 % 991,2 hPa 0,6 l/m 0,4 km/h N-NO 8,4 C 12,7 C 0,2 km/h
23.09.2014 12,7 C 70 % 990,3 hPa 0,2 l/m 0,9 km/h N-NO 6,5 C 12,7 C 0,5 km/h
24.09.2014 12,1 C 77 % 985,7 hPa 2,5 l/m 0,4 km/h SO 7,9 C 12,0 C 0,2 km/h
25.09.2014 13,8 C 75 % 991,3 hPa 0,4 l/m 0,6 km/h N-NO 9,2 C 13,8 C 0,3 km/h
26.09.2014 13,9 C 72 % 996,2 hPa 0,0 l/m 0,1 km/h SO 8,1 C 13,9 C 0,1 km/h
27.09.2014 16,2 C 73 % 996,8 hPa 0,0 l/m 0,0 km/h SO 10,7 C 16,2 C 0,0 km/h
28.09.2014 18,7 C 71 % 995,3 hPa 0,0 l/m 0,0 km/h SO 12,5 C 18,7 C 0,0 km/h
29.09.2014 19,0 C 72 % 995,2 hPa 0,0 l/m 0,1 km/h SO 13,1 C 19,0 C 0,1 km/h
30.09.2014 17,7 C 80 % 996,0 hPa 0,2 l/m 1,3 km/h O-NO 14,2 C 17,5 C 0,7 km/h
Min-Datum 23.09.14 08.09.14 17.09.14 12 Tage 01.09.14 - 23.09.14 23.09.14 01.09.14
Min-Zeit 04:53 17:53 19:53 - 09:53 - 04:53 04:53 09:53
Minimum 3,8 C 36 % 981,0 hPa - 0,0 km/h - 1,7 C 3,8 C 0,0 km/h
Max-Datum 08.09.14 23.09.14 27.09.14 21.09.14 30.09.14 - 19.09.14 08.09.14 30.09.14
Max-Zeit 16:53 02:53 09:53 17:53 18:53 - 10:53 16:53 18:53
Maximum 35,9 C 87 % 998,2 hPa 6,6 l/m 31,1 km/h
O-NO
- 21,4 C 35,9 C 17,3 km/h
O-NO
Durchschnitt 17,5 C 74 % 988,5 hPa #22,8 l/m 0,5 km/h N-NO 12,3 C 17,4 C 0,3 km/h

Durchschnitt Minimum Temp.10,7 C
Durchschnitt Maximum Temp.28,4 C
www.sexauwetter.de